Time;durP1;ratioP1;P1;durP2;ratioP2;P2;SDS_P1;SDS_P2;PMS_P1;PMS_P2;Temp;Humidity;BMP_temperature;BMP_pressure;BME280_temperature;BME280_humidity;BME280_pressure;Samples;Min_cycle;Max_cycle;Signal;HPM_P1;HPM_P2
2022/08/10 00:01:27;;;;;;;4.18;2.80;;;;;;;15.93;100.00;102667.31;4982302;28;20038;-69
2022/08/10 00:03:53;;;;;;;3.15;2.50;;;;;;;15.89;100.00;102667.59;4980119;28;20789;-69
2022/08/10 00:06:21;;;;;;;4.07;3.10;;;;;;;15.87;100.00;102674.88;4982561;28;20049;-67
2022/08/10 00:08:46;;;;;;;4.43;2.70;;;;;;;15.93;100.00;102674.53;4982045;28;20141;-71
2022/08/10 00:11:12;;;;;;;7.32;3.10;;;;;;;15.90;100.00;102666.63;4980345;28;20062;-69
2022/08/10 00:13:37;;;;;;;4.13;3.38;;;;;;;15.77;100.00;102671.84;4982255;28;20096;-69
2022/08/10 00:16:04;;;;;;;5.75;3.97;;;;;;;15.77;100.00;102661.94;4980434;28;20058;-69
2022/08/10 00:18:30;;;;;;;5.30;3.28;;;;;;;15.67;100.00;102659.84;4982098;28;20050;-72
2022/08/10 00:20:58;;;;;;;3.58;3.22;;;;;;;15.74;100.00;102661.25;4981268;28;20450;-70
2022/08/10 00:23:23;;;;;;;8.23;3.92;;;;;;;15.73;100.00;102655.00;4968475;28;20038;-68
2022/08/10 00:25:49;;;;;;;6.03;3.13;;;;;;;15.67;100.00;102657.16;4990403;28;20402;-69
2022/08/10 00:28:14;;;;;;;3.50;3.15;;;;;;;15.66;100.00;102658.09;4983311;28;20043;-68
2022/08/10 00:30:40;;;;;;;4.90;3.55;;;;;;;15.63;100.00;102658.25;4981889;28;20053;-69
2022/08/10 00:33:05;;;;;;;4.15;3.45;;;;;;;15.53;100.00;102661.44;4993912;28;20038;-68
2022/08/10 00:35:30;;;;;;;7.13;4.18;;;;;;;15.55;100.00;102667.59;4980997;28;20045;-68
2022/08/10 00:37:56;;;;;;;6.40;3.90;;;;;;;15.49;100.00;102664.38;4980856;28;20053;-68
2022/08/10 00:40:25;;;;;;;10.95;5.15;;;;;;;15.48;100.00;102655.44;4977573;28;20042;-69
2022/08/10 00:42:50;;;;;;;5.35;4.68;;;;;;;15.45;100.00;102660.13;4995262;28;20037;-69
2022/08/10 00:45:16;;;;;;;5.07;4.15;;;;;;;15.45;100.00;102669.06;4980514;28;20455;-69
2022/08/10 00:47:41;;;;;;;5.70;4.47;;;;;;;15.46;100.00;102664.53;4980790;28;20045;-69
2022/08/10 00:50:07;;;;;;;6.88;5.03;;;;;;;15.37;100.00;102665.06;4980672;28;20042;-68
2022/08/10 00:52:35;;;;;;;6.20;4.93;;;;;;;15.31;100.00;102665.38;4980855;28;20073;-69
2022/08/10 00:55:04;;;;;;;7.10;5.20;;;;;;;15.27;100.00;102662.88;4980658;28;20042;-69
2022/08/10 00:57:31;;;;;;;7.35;4.88;;;;;;;15.17;100.00;102664.31;4984120;28;20487;-68
2022/08/10 00:59:57;;;;;;;8.57;5.10;;;;;;;15.22;100.00;102664.06;4995335;28;20549;-69
2022/08/10 01:02:23;;;;;;;8.00;5.40;;;;;;;15.25;100.00;102662.06;4985708;28;20050;-69
2022/08/10 01:04:48;;;;;;;9.35;4.65;;;;;;;15.18;100.00;102660.69;4983422;28;20042;-69
2022/08/10 01:07:48;;;;;;;8.02;4.90;;;;;;;15.23;100.00;102658.63;4984670;28;20053;-69
2022/08/10 01:10:42;;;;;;;6.55;5.40;;;;;;;15.20;100.00;102656.06;4983481;28;20078;-67
2022/08/10 01:13:15;;;;;;;6.95;4.63;;;;;;;15.11;100.00;102663.75;4979356;28;20180;-69
2022/08/10 01:15:55;;;;;;;9.82;5.13;;;;;;;15.07;100.00;102659.53;4986678;28;20102;-68
2022/08/10 01:18:25;;;;;;;5.65;4.22;;;;;;;15.12;100.00;102658.31;4987495;28;20053;-68
2022/08/10 01:21:24;;;;;;;6.85;4.38;;;;;;;14.94;100.00;102657.47;4985887;28;20062;-69
2022/08/10 01:24:07;;;;;;;6.70;4.55;;;;;;;14.96;100.00;102655.59;4984738;28;20069;-69
2022/08/10 01:26:51;;;;;;;5.97;4.28;;;;;;;15.03;100.00;102648.06;4984138;28;20132;-68
2022/08/10 01:29:48;;;;;;;5.72;4.22;;;;;;;14.92;100.00;102645.94;4964506;28;20073;-70
2022/08/10 01:32:18;;;;;;;6.95;4.05;;;;;;;14.92;100.00;102642.41;4987546;28;20120;-68
2022/08/10 01:34:55;;;;;;;7.28;4.30;;;;;;;14.81;100.00;102647.44;4993972;28;20046;-68
2022/08/10 01:37:25;;;;;;;5.60;3.97;;;;;;;14.86;100.00;102640.00;4984901;28;20088;-69
2022/08/10 01:39:55;;;;;;;8.68;4.40;;;;;;;14.86;100.00;102642.69;4997264;28;20054;-68
2022/08/10 01:42:22;;;;;;;7.80;4.78;;;;;;;14.77;100.00;102639.56;4988561;28;20046;-69
2022/08/10 01:44:59;;;;;;;7.13;4.30;;;;;;;14.75;100.00;102643.25;4983199;28;20545;-68
2022/08/10 01:50:44;;;;;;;4.82;3.70;;;;;;;14.86;100.00;102637.31;4994940;28;20049;-67
2022/08/10 01:53:14;;;;;;;10.85;4.45;;;;;;;14.87;100.00;102639.94;4981911;28;20038;-67
2022/08/10 01:55:41;;;;;;;6.10;4.38;;;;;;;14.85;100.00;102643.66;4983434;28;20749;-69
2022/08/10 01:58:09;;;;;;;6.28;4.40;;;;;;;14.73;100.00;102634.44;4983003;28;20399;-68
2022/08/10 02:00:37;;;;;;;6.00;4.75;;;;;;;14.65;100.00;102636.63;4983757;28;20049;-68
2022/08/10 02:03:05;;;;;;;8.18;4.50;;;;;;;14.65;100.00;102634.81;4983539;28;20122;-68
2022/08/10 02:05:32;;;;;;;6.25;4.32;;;;;;;14.66;100.00;102631.22;4984755;28;20474;-68
2022/08/10 02:08:00;;;;;;;6.50;4.78;;;;;;;14.60;100.00;102636.88;4990393;28;20053;-68
2022/08/10 02:10:28;;;;;;;8.65;5.15;;;;;;;14.53;100.00;102630.09;4988978;28;20137;-69
2022/08/10 02:12:56;;;;;;;7.97;4.35;;;;;;;14.49;100.00;102632.06;4973230;28;20070;-69
2022/08/10 02:15:29;;;;;;;7.63;4.47;;;;;;;14.58;100.00;102641.47;4985186;28;20892;-69
2022/08/10 02:17:59;;;;;;;6.03;4.57;;;;;;;14.50;100.00;102636.47;4984904;28;20578;-67
2022/08/10 02:20:27;;;;;;;10.35;5.57;;;;;;;14.55;100.00;102632.69;4983903;28;20034;-67
2022/08/10 02:23:11;;;;;;;7.03;4.65;;;;;;;14.55;100.00;102622.81;4982593;28;20057;-69
2022/08/10 02:25:38;;;;;;;8.13;4.97;;;;;;;14.39;100.00;102622.69;4984189;28;20452;-69
2022/08/10 02:28:05;;;;;;;6.28;4.72;;;;;;;14.42;100.00;102630.59;4983913;28;20048;-68
2022/08/10 02:30:32;;;;;;;8.68;5.65;;;;;;;14.33;100.00;102631.06;4985332;28;20777;-69
2022/08/10 02:33:00;;;;;;;9.23;5.22;;;;;;;14.27;100.00;102633.19;4982550;28;20050;-69
2022/08/10 02:35:26;;;;;;;7.30;5.50;;;;;;;14.37;100.00;102634.47;4981975;28;20049;-67
2022/08/10 02:37:58;;;;;;;8.30;5.10;;;;;;;14.24;100.00;102636.91;4979790;28;20049;-68
2022/08/10 02:40:26;;;;;;;6.80;4.88;;;;;;;14.24;100.00;102642.25;4979709;28;20037;-69
2022/08/10 02:43:09;;;;;;;9.40;6.03;;;;;;;14.17;100.00;102643.53;4982198;28;20066;-69
2022/08/10 02:45:41;;;;;;;;;;;;;;;13.92;100.00;102644.72;4982931;28;20146;-66
2022/08/10 02:48:20;;;;;;;9.65;5.78;;;;;;;14.09;100.00;102645.69;4994696;28;19932;-67
2022/08/10 02:50:54;;;;;;;8.90;6.30;;;;;;;13.94;100.00;102648.19;4982185;28;20042;-68
2022/08/10 02:53:27;;;;;;;10.20;6.05;;;;;;;13.95;100.00;102646.38;4986953;28;20045;-69
2022/08/10 02:56:15;;;;;;;9.95;6.50;;;;;;;13.90;100.00;102643.03;4989404;28;20149;-69
2022/08/10 02:58:49;;;;;;;11.15;6.97;;;;;;;13.94;100.00;102650.00;4979623;28;20050;-69
2022/08/10 03:01:20;;;;;;;12.25;7.38;;;;;;;13.86;100.00;102646.84;4996151;28;20054;-67
2022/08/10 03:04:07;;;;;;;11.25;7.22;;;;;;;13.77;100.00;102642.78;4993438;28;20045;-69
2022/08/10 03:06:37;;;;;;;10.75;6.57;;;;;;;13.83;100.00;102642.47;4970890;28;20415;-69
2022/08/10 03:09:06;;;;;;;10.68;7.50;;;;;;;13.85;100.00;102640.59;4982762;28;20030;-69
2022/08/10 03:11:34;;;;;;;15.88;8.27;;;;;;;13.82;100.00;102639.88;4992054;28;20048;-69
2022/08/10 03:14:00;;;;;;;13.07;7.57;;;;;;;13.73;100.00;102639.38;4999819;28;20057;-68
2022/08/10 03:16:28;;;;;;;13.00;7.75;;;;;;;13.72;100.00;102642.13;5001662;28;20555;-68
2022/08/10 03:18:59;;;;;;;11.98;7.88;;;;;;;13.72;100.00;102643.00;5000612;28;20041;-69
2022/08/10 03:21:29;;;;;;;15.13;8.35;;;;;;;13.71;100.00;102640.41;4991636;28;20068;-68
2022/08/10 03:23:58;;;;;;;13.55;9.20;;;;;;;13.64;100.00;102638.94;4995132;28;20091;-69
2022/08/10 03:26:24;;;;;;;15.43;9.40;;;;;;;13.69;100.00;102636.91;4994387;28;20041;-69
2022/08/10 03:28:51;;;;;;;14.45;8.75;;;;;;;13.60;100.00;102631.97;4988511;28;20109;-69
2022/08/10 03:31:20;;;;;;;18.70;9.93;;;;;;;13.53;100.00;102630.53;4990209;28;20483;-67
2022/08/10 03:33:47;;;;;;;19.00;10.00;;;;;;;13.54;100.00;102627.78;4994524;28;20117;-68
2022/08/10 03:36:12;;;;;;;15.45;9.30;;;;;;;13.52;100.00;102623.44;4982646;28;20042;-68
2022/08/10 03:38:39;;;;;;;19.95;11.00;;;;;;;13.52;100.00;102618.94;4980708;28;20621;-68
2022/08/10 03:41:08;;;;;;;18.55;10.30;;;;;;;13.54;100.00;102618.88;4983385;28;20034;-69
2022/08/10 03:43:34;;;;;;;19.73;9.85;;;;;;;13.52;100.00;102610.91;4982289;28;20044;-69
2022/08/10 03:46:02;;;;;;;20.08;10.38;;;;;;;13.36;100.00;102613.44;4991558;28;20048;-67
2022/08/10 03:48:30;;;;;;;17.20;10.32;;;;;;;13.39;100.00;102615.97;4981468;28;20454;-67
2022/08/10 03:50:57;;;;;;;20.80;11.63;;;;;;;13.43;100.00;102611.34;4979435;28;20629;-68
2022/08/10 03:53:23;;;;;;;19.45;11.18;;;;;;;13.40;100.00;102614.16;4979274;28;20459;-67
2022/08/10 03:55:50;;;;;;;18.70;11.18;;;;;;;13.40;100.00;102615.06;4980932;28;20038;-68
2022/08/10 03:58:16;;;;;;;18.33;10.80;;;;;;;13.39;100.00;102620.47;4980615;28;20042;-68
2022/08/10 04:00:42;;;;;;;19.27;11.38;;;;;;;13.36;100.00;102615.25;4993212;28;20041;-68
2022/08/10 04:03:08;;;;;;;24.08;11.23;;;;;;;13.33;100.00;102613.56;4985783;28;20388;-67
2022/08/10 04:05:34;;;;;;;20.02;11.73;;;;;;;13.35;100.00;102608.13;4986829;28;20041;-68
2022/08/10 04:08:00;;;;;;;23.60;11.88;;;;;;;13.40;100.00;102604.34;4991413;28;20638;-66
2022/08/10 04:10:26;;;;;;;26.83;12.48;;;;;;;13.33;100.00;102607.34;4992585;28;20046;-69
2022/08/10 04:12:52;;;;;;;19.92;10.77;;;;;;;13.30;100.00;102612.84;4992836;28;20126;-69
2022/08/10 04:15:17;;;;;;;23.65;12.48;;;;;;;13.35;100.00;102610.81;4992525;28;20130;-67
2022/08/10 04:17:43;;;;;;;25.48;12.07;;;;;;;13.17;100.00;102615.19;4980570;28;20108;-68
2022/08/10 04:20:30;;;;;;;23.50;12.82;;;;;;;13.21;100.00;102617.69;4992616;28;20042;-69
2022/08/10 04:23:00;;;;;;;23.80;13.13;;;;;;;13.19;100.00;102614.16;4972496;28;20228;-69
2022/08/10 04:25:26;;;;;;;22.67;11.75;;;;;;;13.18;100.00;102617.81;4988779;28;20042;-69
2022/08/10 04:27:52;;;;;;;33.28;14.68;;;;;;;13.25;100.00;102620.22;5000392;28;20066;-68
2022/08/10 04:30:18;;;;;;;32.40;12.35;;;;;;;13.25;100.00;102621.09;5000145;28;20038;-68
2022/08/10 04:32:48;;;;;;;20.77;12.45;;;;;;;13.25;100.00;102615.72;4991738;28;20850;-67
2022/08/10 04:35:17;;;;;;;27.08;12.18;;;;;;;13.25;100.00;102620.22;4986843;28;20034;-67
2022/08/10 04:37:45;;;;;;;22.73;12.07;;;;;;;13.27;100.00;102629.06;4985531;28;20135;-68
2022/08/10 04:40:11;;;;;;;28.23;12.63;;;;;;;13.33;100.00;102628.78;4991609;28;20742;-68
2022/08/10 04:42:38;;;;;;;23.77;13.10;;;;;;;13.29;100.00;102622.69;4994719;28;20046;-70
2022/08/10 04:45:10;;;;;;;21.00;12.45;;;;;;;13.26;100.00;102616.63;4984723;28;20589;-68
2022/08/10 04:47:36;;;;;;;;;;;;;;;13.30;100.00;102621.75;4987560;28;20049;-69
2022/08/10 04:50:01;;;;;;;24.02;11.95;;;;;;;13.36;100.00;102620.63;4991596;28;19921;-69
2022/08/10 04:52:26;;;;;;;22.40;12.30;;;;;;;13.32;100.00;102616.34;5005136;28;20046;-68
2022/08/10 04:54:52;;;;;;;23.10;11.95;;;;;;;13.31;100.00;102614.59;4990923;28;20049;-68
2022/08/10 04:57:17;;;;;;;25.92;12.30;;;;;;;13.45;100.00;102610.34;4978689;28;20049;-67
2022/08/10 04:59:43;;;;;;;21.65;11.88;;;;;;;13.46;100.00;102611.22;4988758;28;20054;-69
2022/08/10 05:02:08;;;;;;;21.05;12.68;;;;;;;13.60;100.00;102614.06;5002866;28;20042;-69
2022/08/10 05:04:33;;;;;;;22.52;11.85;;;;;;;13.68;100.00;102611.91;4988849;28;20030;-67
2022/08/10 05:06:59;;;;;;;17.83;10.38;;;;;;;13.69;100.00;102620.81;5000917;28;20478;-70
2022/08/10 05:09:24;;;;;;;21.85;11.48;;;;;;;13.72;100.00;102616.19;4990446;28;20030;-68
2022/08/10 05:11:50;;;;;;;21.80;12.18;;;;;;;13.70;100.00;102611.81;4989838;28;20046;-69
2022/08/10 05:14:15;;;;;;;25.58;12.48;;;;;;;13.82;100.00;102611.25;4991938;28;20037;-69
2022/08/10 05:16:40;;;;;;;24.77;11.80;;;;;;;13.92;100.00;102614.34;4992326;28;20045;-69
2022/08/10 05:19:06;;;;;;;24.00;11.68;;;;;;;13.90;100.00;102618.91;4991748;28;20116;-69
2022/08/10 05:21:31;;;;;;;30.02;12.70;;;;;;;14.02;100.00;102617.47;4989724;28;20057;-69
2022/08/10 05:24:03;;;;;;;25.90;11.55;;;;;;;14.15;100.00;102614.06;4986901;28;20046;-69
2022/08/10 05:26:29;;;;;;;21.92;12.27;;;;;;;14.25;100.00;102620.69;4988448;28;20144;-68
2022/08/10 05:28:55;;;;;;;20.33;11.00;;;;;;;14.33;100.00;102620.34;4988344;28;20513;-69
2022/08/10 05:31:20;;;;;;;23.75;12.75;;;;;;;14.35;100.00;102617.56;4986129;28;20038;-69
2022/08/10 05:33:46;;;;;;;24.65;13.27;;;;;;;14.56;100.00;102618.31;4986375;28;20053;-69
2022/08/10 05:36:12;;;;;;;23.13;11.95;;;;;;;14.72;100.00;102613.91;4986823;28;20038;-69
2022/08/10 05:38:38;;;;;;;22.27;11.75;;;;;;;14.70;100.00;102622.00;4986912;28;20074;-69
2022/08/10 05:41:04;;;;;;;23.02;13.13;;;;;;;14.75;100.00;102622.63;4981912;28;20145;-68
2022/08/10 05:43:30;;;;;;;24.55;12.90;;;;;;;14.86;100.00;102621.22;4985273;28;20038;-69
2022/08/10 05:45:55;;;;;;;19.42;10.70;;;;;;;14.89;100.00;102618.38;4984248;28;20046;-70
2022/08/10 05:48:21;;;;;;;22.42;13.35;;;;;;;14.91;100.00;102616.47;4984174;28;20038;-70
2022/08/10 05:50:47;;;;;;;26.75;12.23;;;;;;;14.83;100.00;102627.63;4984320;28;20051;-68
2022/08/10 05:53:12;;;;;;;21.35;12.60;;;;;;;14.91;100.00;102627.19;4979877;28;20046;-69
2022/08/10 05:55:38;;;;;;;21.83;13.00;;;;;;;15.21;100.00;102632.75;4974107;28;20784;-70
2022/08/10 05:58:03;;;;;;;22.45;11.43;;;;;;;15.16;100.00;102630.34;4983882;28;20923;-69
2022/08/10 06:00:31;;;;;;;18.95;11.50;;;;;;;15.41;100.00;102619.13;4984246;28;20068;-69
2022/08/10 06:03:00;;;;;;;23.63;11.80;;;;;;;15.62;100.00;102617.06;4982946;28;20144;-69
2022/08/10 06:05:29;;;;;;;22.10;13.43;;;;;;;15.80;100.00;102625.91;4983588;28;20050;-70
2022/08/10 06:08:18;;;;;;;20.70;12.40;;;;;;;15.98;100.00;102615.94;4983648;28;20041;-70
2022/08/10 06:10:44;;;;;;;24.02;12.57;;;;;;;15.90;100.00;102620.88;4984021;28;20574;-69
2022/08/10 06:15:57;;;;;;;19.88;11.55;;;;;;;16.12;100.00;102621.41;4979522;28;20046;-70
2022/08/10 06:18:23;;;;;;;19.88;11.73;;;;;;;16.39;100.00;102616.19;4987495;28;20043;-69
2022/08/10 06:20:49;;;;;;;23.67;12.65;;;;;;;16.61;100.00;102620.28;4984740;28;20100;-69
2022/08/10 06:23:16;;;;;;;17.60;10.23;;;;;;;16.76;100.00;102616.69;4987206;28;20062;-71
2022/08/10 06:25:42;;;;;;;19.65;12.77;;;;;;;16.98;100.00;102624.34;4987787;28;20041;-69
2022/08/10 06:28:13;;;;;;;20.20;12.02;;;;;;;17.14;100.00;102621.56;4982475;28;20034;-70
2022/08/10 06:30:39;;;;;;;17.00;11.02;;;;;;;17.24;100.00;102617.31;4982205;28;20115;-69
2022/08/10 06:33:06;;;;;;;20.65;11.35;;;;;;;17.61;100.00;102608.59;4982456;28;20054;-69
2022/08/10 06:35:33;;;;;;;20.67;12.05;;;;;;;17.48;100.00;102614.91;4981223;28;20101;-69
2022/08/10 06:38:01;;;;;;;21.77;11.55;;;;;;;17.75;100.00;102618.53;4993367;28;20123;-70
2022/08/10 06:40:30;;;;;;;20.17;11.35;;;;;;;17.98;100.00;102614.31;4994549;28;20770;-71
2022/08/10 06:42:58;;;;;;;21.95;11.10;;;;;;;18.50;100.00;102618.03;4994745;28;20033;-69
2022/08/10 06:45:30;;;;;;;17.80;10.45;;;;;;;18.66;98.68;102615.13;4981901;28;20900;-70
2022/08/10 06:48:03;;;;;;;17.63;10.43;;;;;;;19.03;95.52;102619.75;4994490;28;20487;-69
2022/08/10 06:50:45;;;;;;;23.48;10.85;;;;;;;19.28;95.71;102621.56;4989943;28;20855;-69
2022/08/10 06:53:15;;;;;;;16.48;10.10;;;;;;;19.08;94.99;102623.00;4983707;28;20053;-70
2022/08/10 06:55:45;;;;;;;14.07;9.73;;;;;;;19.70;89.13;102608.63;4982081;28;20042;-68
2022/08/10 06:58:13;;;;;;;17.52;9.88;;;;;;;19.79;90.83;102602.53;4985693;28;20037;-70
2022/08/10 07:00:41;;;;;;;15.80;10.10;;;;;;;20.13;88.92;102603.56;4981260;28;20042;-68
2022/08/10 07:03:13;;;;;;;17.67;10.05;;;;;;;20.52;86.44;102616.91;4981335;28;20561;-70
2022/08/10 07:05:43;;;;;;;13.38;9.63;;;;;;;20.42;85.59;102616.72;4987221;28;20642;-68
2022/08/10 07:08:09;;;;;;;17.55;10.73;;;;;;;20.71;85.32;102610.91;4990418;28;20521;-69
2022/08/10 07:10:36;;;;;;;15.88;9.45;;;;;;;20.94;83.91;102616.28;4986748;28;20057;-69
2022/08/10 07:13:03;;;;;;;14.38;8.48;;;;;;;20.56;83.67;102612.97;4984510;28;20073;-69
2022/08/10 07:15:30;;;;;;;19.92;9.27;;;;;;;20.94;83.80;102610.84;4992018;28;20034;-69
2022/08/10 07:17:57;;;;;;;14.75;8.55;;;;;;;20.99;82.22;102606.91;4980732;28;20045;-70
2022/08/10 07:20:24;;;;;;;13.75;8.82;;;;;;;21.39;83.58;102597.31;4985357;28;20050;-70
2022/08/10 07:22:51;;;;;;;12.20;8.20;;;;;;;21.03;80.84;102601.09;4987188;28;20042;-69
2022/08/10 07:25:20;;;;;;;12.60;8.48;;;;;;;21.16;79.68;102609.13;4990078;28;20128;-68
2022/08/10 07:27:46;;;;;;;12.40;8.55;;;;;;;21.22;78.84;102616.78;4979172;28;20509;-69
2022/08/10 07:30:12;;;;;;;13.43;8.35;;;;;;;22.01;75.36;102608.53;4981034;28;20052;-70
2022/08/10 07:32:40;;;;;;;10.07;7.75;;;;;;;21.19;77.90;102615.19;4982843;28;20310;-69
2022/08/10 07:35:08;;;;;;;14.50;8.07;;;;;;;21.88;76.70;102614.97;4985576;28;20049;-70
2022/08/10 07:37:35;;;;;;;11.85;7.88;;;;;;;21.42;77.52;102602.47;5000381;28;20081;-70
2022/08/10 07:40:03;;;;;;;12.18;7.57;;;;;;;22.08;76.67;102609.75;4987398;28;20046;-70
2022/08/10 07:42:31;;;;;;;12.10;7.25;;;;;;;22.43;74.24;102609.50;5006406;28;20057;-68
2022/08/10 07:44:57;;;;;;;10.13;7.30;;;;;;;22.73;75.14;102614.13;4980335;28;20065;-69
2022/08/10 07:47:36;;;;;;;10.07;7.30;;;;;;;22.26;73.71;102613.66;4980921;28;20133;-70
2022/08/10 07:50:06;;;;;;;11.63;7.03;;;;;;;22.92;75.25;102611.56;4980959;28;20681;-70
2022/08/10 07:52:33;;;;;;;11.35;6.90;;;;;;;22.45;72.71;102612.97;4981093;28;20057;-69
2022/08/10 07:55:01;;;;;;;8.77;5.78;;;;;;;23.17;74.33;102609.41;4981046;28;20046;-69
2022/08/10 07:57:29;;;;;;;9.68;6.25;;;;;;;23.16;70.19;102607.69;4993557;28;20048;-69
2022/08/10 08:00:00;;;;;;;8.68;6.18;;;;;;;22.89;70.38;102614.59;4986599;28;20030;-69
2022/08/10 08:02:40;;;;;;;10.68;5.93;;;;;;;22.92;70.55;102606.13;4987009;28;20138;-69
2022/08/10 08:05:08;;;;;;;7.10;5.65;;;;;;;23.37;67.57;102610.34;4980692;28;20042;-70
2022/08/10 08:07:35;;;;;;;9.10;6.03;;;;;;;23.94;67.48;102598.75;4980559;28;20050;-70
2022/08/10 08:10:02;;;;;;;6.93;5.80;;;;;;;23.99;68.71;102593.72;4988770;28;20413;-70
2022/08/10 08:12:30;;;;;;;10.73;6.38;;;;;;;23.88;68.60;102593.88;4987130;28;20896;-70
2022/08/10 08:14:57;;;;;;;6.97;4.78;;;;;;;24.21;65.20;102594.47;5001133;28;20045;-69
2022/08/10 08:17:25;;;;;;;9.48;5.32;;;;;;;24.27;64.11;102597.47;5000572;28;20058;-70
2022/08/10 08:19:53;;;;;;;8.85;5.35;;;;;;;25.43;62.40;102584.56;5000232;28;20053;-70
2022/08/10 08:22:19;;;;;;;5.60;4.25;;;;;;;25.49;59.80;102587.53;5012160;28;20191;-70
2022/08/10 08:24:46;;;;;;;7.68;5.18;;;;;;;25.19;63.57;102594.16;4981611;28;20479;-70
2022/08/10 08:27:15;;;;;;;7.25;4.93;;;;;;;25.24;62.58;102591.84;4994720;28;20069;-69
2022/08/10 08:29:43;;;;;;;7.93;4.57;;;;;;;24.59;59.82;102596.31;4991517;28;20410;-69
2022/08/10 08:32:10;;;;;;;6.82;4.72;;;;;;;24.91;60.77;102593.25;4974713;28;20049;-71
2022/08/10 08:34:38;;;;;;;9.95;4.45;;;;;;;25.51;62.94;102584.69;4988651;28;20198;-70
2022/08/10 08:37:05;;;;;;;7.55;4.15;;;;;;;24.48;62.14;102591.91;4981561;28;20762;-71
2022/08/10 08:39:32;;;;;;;9.00;4.90;;;;;;;24.73;64.17;102589.56;4993324;28;20116;-71
2022/08/10 08:42:03;;;;;;;8.18;3.95;;;;;;;24.52;61.68;102595.19;4980597;28;20034;-71
2022/08/10 08:44:59;;;;;;;9.20;4.17;;;;;;;24.99;65.00;102590.63;4983937;28;20061;-71
2022/08/10 08:47:47;;;;;;;8.32;4.47;;;;;;;25.04;62.06;102598.34;4986922;28;20453;-71
2022/08/10 08:50:38;;;;;;;4.78;3.70;;;;;;;25.03;61.38;102594.78;4983427;28;20039;-70
2022/08/10 08:53:24;;;;;;;4.80;3.83;;;;;;;25.00;61.58;102591.47;4986423;28;20491;-71
2022/08/10 08:56:08;;;;;;;4.50;3.15;;;;;;;24.72;61.10;102590.56;4984272;28;20052;-69
2022/08/10 08:58:49;;;;;;;6.68;3.60;;;;;;;24.94;60.71;102587.47;4981582;28;20045;-70
2022/08/10 09:01:29;;;;;;;7.00;3.85;;;;;;;24.54;62.13;102587.72;4983633;28;20065;-69
2022/08/10 09:04:44;;;;;;;5.60;3.92;;;;;;;25.14;62.08;102585.56;4981619;28;20042;-69
2022/08/10 09:07:28;;;;;;;9.55;3.75;;;;;;;25.21;62.10;102583.13;4922264;29;20048;-69
2022/08/10 09:10:14;;;;;;;5.78;3.40;;;;;;;25.02;61.28;102582.13;4923279;29;20543;-70
2022/08/10 09:13:08;;;;;;;4.47;2.90;;;;;;;25.19;59.26;102579.66;4921076;29;20075;-71
2022/08/10 09:15:53;;;;;;;9.90;2.97;;;;;;;25.34;61.51;102575.41;4922805;29;20078;-70
2022/08/10 09:18:27;;;;;;;3.95;2.88;;;;;;;24.78;57.07;102579.91;4928120;29;20518;-71
2022/08/10 09:21:08;;;;;;;3.08;2.40;;;;;;;25.20;57.04;102581.38;4911359;29;20047;-70
2022/08/10 09:23:44;;;;;;;3.20;2.90;;;;;;;25.71;60.09;102577.22;4933087;29;20062;-70
2022/08/10 09:26:20;;;;;;;3.30;2.60;;;;;;;25.41;60.02;102575.69;4928176;29;20055;-69
2022/08/10 09:28:46;;;;;;;4.22;2.80;;;;;;;25.83;57.71;102585.06;4934104;29;20135;-70
2022/08/10 09:31:12;;;;;;;7.32;2.42;;;;;;;25.94;55.82;102574.91;4932119;29;20088;-69
2022/08/10 09:33:55;;;;;;;5.90;2.60;;;;;;;26.29;58.50;102574.88;4927018;29;20575;-70
2022/08/10 09:36:27;;;;;;;4.57;3.33;;;;;;;25.90;55.74;102568.03;4930337;29;20051;-70
2022/08/10 09:39:02;;;;;;;3.60;2.60;;;;;;;26.14;54.44;102559.19;4927502;29;20079;-71
2022/08/10 09:41:48;;;;;;;4.28;2.42;;;;;;;26.44;54.87;102560.69;4932446;28;20050;-71
2022/08/10 09:44:19;;;;;;;3.83;2.42;;;;;;;26.25;51.80;102558.94;4990919;28;20044;-70
2022/08/10 09:46:44;;;;;;;9.47;2.73;;;;;;;26.34;54.97;102558.00;4986485;28;20855;-70
2022/08/10 09:49:36;;;;;;;9.77;2.72;;;;;;;26.38;56.11;102566.75;4996919;28;20133;-69
2022/08/10 09:52:16;;;;;;;3.05;2.38;;;;;;;26.69;52.39;102553.50;4989878;28;20046;-69
2022/08/10 09:54:57;;;;;;;5.30;2.35;;;;;;;26.69;52.53;102558.97;4993967;28;20538;-69
2022/08/10 09:57:33;;;;;;;3.08;2.30;;;;;;;26.64;50.38;102544.91;4985705;28;20078;-70
2022/08/10 10:00:11;;;;;;;3.95;2.30;;;;;;;26.71;52.02;102548.69;4985288;28;20121;-70
2022/08/10 10:02:58;;;;;;;3.97;2.03;;;;;;;26.65;49.45;102544.75;4991211;28;20041;-70
2022/08/10 10:05:29;;;;;;;5.20;2.22;;;;;;;26.75;50.78;102541.88;4984615;28;20042;-71
2022/08/10 10:08:09;;;;;;;6.22;2.42;;;;;;;27.56;48.37;102542.28;4991250;28;20046;-70
2022/08/10 10:10:44;;;;;;;2.85;2.05;;;;;;;26.68;45.79;102532.63;4989234;28;20123;-71
2022/08/10 10:13:17;;;;;;;7.28;2.88;;;;;;;27.10;48.08;102530.81;4988266;28;20038;-70
2022/08/10 10:16:21;;;;;;;5.03;2.65;;;;;;;27.19;46.64;102528.09;4993579;28;20163;-72
2022/08/10 10:19:26;;;;;;;4.03;2.45;;;;;;;27.49;48.18;102529.41;4989205;28;20797;-68
2022/08/10 10:22:27;;;;;;;4.15;1.88;;;;;;;27.20;44.11;102516.97;4986683;28;20829;-69
2022/08/10 10:25:13;;;;;;;2.80;1.63;;;;;;;27.66;43.47;102511.94;4972788;28;20057;-68
2022/08/10 10:27:57;;;;;;;11.73;2.22;;;;;;;28.02;43.46;102498.84;4981857;28;20049;-69
2022/08/10 10:30:25;;;;;;;3.53;1.88;;;;;;;27.99;42.15;102504.66;4984681;28;20469;-67
2022/08/10 10:33:07;;;;;;;3.30;1.65;;;;;;;27.89;41.91;102495.72;4992291;28;20085;-67
2022/08/10 10:38:38;;;;;;;5.15;1.92;;;;;;;27.86;41.62;102494.22;4914423;29;20539;-69
2022/08/10 10:41:26;;;;;;;2.10;1.90;;;;;;;27.99;42.31;102495.56;4914528;29;20142;-69
2022/08/10 10:44:04;;;;;;;4.38;1.85;;;;;;;28.06;42.20;102491.97;4932570;29;20829;-69
2022/08/10 10:46:43;;;;;;;6.55;1.60;;;;;;;28.48;44.96;102496.41;4930793;29;20054;-69
2022/08/10 10:49:34;;;;;;;2.97;1.80;;;;;;;28.27;40.37;102491.44;4921325;29;20047;-69
2022/08/10 10:52:37;;;;;;;3.80;1.85;;;;;;;28.26;39.15;102494.34;4902065;29;20087;-69
2022/08/10 10:55:15;;;;;;;4.70;2.13;;;;;;;28.52;40.33;102481.31;4913530;29;20070;-69
2022/08/10 10:57:52;;;;;;;2.58;1.70;;;;;;;28.29;37.85;102485.75;4913686;29;20856;-69
2022/08/10 11:00:22;;;;;;;2.75;1.88;;;;;;;28.25;38.95;102490.75;4917914;29;20054;-69
2022/08/10 11:03:22;;;;;;;5.20;1.90;;;;;;;28.32;39.05;102482.69;4917360;29;20055;-69
2022/08/10 11:06:03;;;;;;;3.90;1.85;;;;;;;28.52;41.69;102474.97;4918573;29;20110;-69
2022/08/10 11:08:36;;;;;;;3.50;1.83;;;;;;;28.36;42.66;102467.59;4912128;29;20078;-68
2022/08/10 11:11:12;;;;;;;2.90;1.48;;;;;;;28.13;37.97;102456.47;4917074;29;20048;-69
2022/08/10 11:13:56;;;;;;;1.70;1.27;;;;;;;28.52;37.79;102461.22;4910618;29;20150;-70
2022/08/10 11:16:34;;;;;;;5.35;1.60;;;;;;;28.63;37.31;102452.59;4916418;29;20038;-69
2022/08/10 11:19:21;;;;;;;1.35;1.23;;;;;;;28.62;39.75;102462.75;4916594;29;20050;-70
2022/08/10 11:22:17;;;;;;;2.17;1.60;;;;;;;28.53;38.75;102458.31;4916099;29;20078;-69
2022/08/10 11:24:56;;;;;;;3.78;1.50;;;;;;;28.44;36.29;102456.59;4915329;28;20032;-69
2022/08/10 11:27:42;;;;;;;4.10;1.75;;;;;;;28.51;36.84;102456.75;4922639;28;20081;-70
2022/08/10 11:30:12;;;;;;;2.75;1.50;;;;;;;28.07;36.97;102455.28;4915997;29;20035;-70
2022/08/10 11:32:54;;;;;;;4.57;1.83;;;;;;;28.28;38.31;102453.88;4910822;29;20158;-70
2022/08/10 11:35:35;;;;;;;3.10;1.20;;;;;;;28.42;37.76;102449.59;4917916;29;20039;-69
2022/08/10 11:38:09;;;;;;;2.50;1.88;;;;;;;28.59;36.24;102451.25;4914109;29;20058;-69
2022/08/10 11:40:48;;;;;;;2.13;1.63;;;;;;;28.43;35.70;102451.31;4918609;29;20043;-69
2022/08/10 11:43:25;;;;;;;3.05;1.58;;;;;;;28.49;39.12;102458.81;4921577;29;20043;-70
2022/08/10 11:45:59;;;;;;;2.83;1.33;;;;;;;28.80;37.21;102453.38;4920903;29;20754;-69